Terminal Aerodrome Forecast
Issued by NWS Tuscon, AZ

Home | Current Version | Previous Version | Text Only | Print | Product List | Glossary On
Versions: 1 2 3 4 5 6 7 8 9 10 11 12 13 14 15 16 17
000
FTUS45 KTWC 291100
TAFDUG
TAF
KDUG 291120Z 2912/3012 VRB03KT P6SM SKC
     FM292000 28007KT P6SM FEW090
     FM300300 08006KT P6SM FEW150=

USA.gov is the U.S. government's official web portal to all federal, state and local government web resources and services.